Time,TemperatureF,DewpointF,PressureIn,WindDirection,WindDirectionDegrees,WindSpeedMPH,WindSpeedGustMPH,Humidity,HourlyPrecipIn,Conditions,Clouds,dailyrainin,SolarRadiationWatts/m^2,SoftwareType,DateUTC
2013-04-10 00:00:00,45.0,43.1,30.03,ESE,111,9.0,11.0,93,0.00,,---,0.06,0.00,VWS V14.01,2013-04-10 04:00:00,
2013-04-10 00:05:00,45.1,43.2,30.03,ESE,115,11.0,11.0,93,0.00,,---,0.00,0.00,VWS V14.01,2013-04-10 04:05:00,
2013-04-10 00:10:00,45.3,43.4,30.03,SE,131,11.0,11.0,93,0.00,,---,0.00,0.00,VWS V14.01,2013-04-10 04:10:00,
2013-04-10 00:15:00,45.3,43.1,30.02,ESE,115,5.0,11.0,92,0.00,,---,0.00,0.00,VWS V14.01,2013-04-10 04:15:00,
2013-04-10 00:20:00,45.4,43.2,30.01,ESE,104,5.0,8.0,92,0.00,,---,0.00,0.00,VWS V14.01,2013-04-10 04:20:00,
2013-04-10 00:25:00,45.4,43.2,30.02,East,82,5.0,8.0,92,0.00,,---,0.00,0.00,VWS V14.01,2013-04-10 04:25:00,
2013-04-10 00:30:00,45.5,43.0,30.01,East,86,5.0,8.0,91,0.00,,---,0.00,0.00,VWS V14.01,2013-04-10 04:30:00,
2013-04-10 00:35:00,45.6,42.8,30.01,East,98,7.0,8.0,90,0.00,,---,0.00,0.00,VWS V14.01,2013-04-10 04:35:00,
2013-04-10 00:40:00,45.7,42.9,30.01,ENE,70,6.0,8.0,90,0.00,,---,0.00,0.00,VWS V14.01,2013-04-10 04:40:00,
2013-04-10 00:45:00,45.7,42.9,30.00,ENE,77,8.0,8.0,90,0.00,,---,0.00,0.00,VWS V14.01,2013-04-10 04:45:00,
2013-04-10 00:50:00,45.6,42.8,29.99,ENE,67,6.0,10.0,90,0.00,,---,0.00,0.00,VWS V14.01,2013-04-10 04:50:00,
2013-04-10 00:55:00,45.5,42.7,30.00,East,94,8.0,10.0,90,0.00,,---,0.00,0.00,VWS V14.01,2013-04-10 04:55:00,
2013-04-10 01:00:00,45.4,42.6,30.00,ESE,106,11.0,11.0,90,0.00,,---,0.00,0.00,VWS V14.01,2013-04-10 05:00:00,
2013-04-10 01:05:00,45.4,42.9,29.99,East,101,7.0,12.0,91,0.00,,---,0.00,0.00,VWS V14.01,2013-04-10 05:05:00,
2013-04-10 01:10:00,45.4,42.9,30.00,ESE,104,7.0,12.0,91,0.00,,---,0.00,0.00,VWS V14.01,2013-04-10 05:10:00,
2013-04-10 01:15:00,45.4,42.9,29.99,ESE,107,9.0,12.0,91,0.00,,---,0.00,0.00,VWS V14.01,2013-04-10 05:15:00,
2013-04-10 01:20:00,45.5,42.7,29.98,ESE,103,11.0,12.0,90,0.00,,---,0.00,0.00,VWS V14.01,2013-04-10 05:20:00,
2013-04-10 01:25:00,45.4,42.6,29.98,ESE,111,11.0,12.0,90,0.00,,---,0.00,0.00,VWS V14.01,2013-04-10 05:25:00,
2013-04-10 01:30:00,45.4,42.9,29.97,ESE,114,11.0,12.0,91,0.00,,---,0.00,0.00,VWS V14.01,2013-04-10 05:30:00,
2013-04-10 01:35:00,45.4,42.9,29.97,SE,126,11.0,12.0,91,0.00,,---,0.00,0.00,VWS V14.01,2013-04-10 05:35:00,
2013-04-10 01:40:00,45.4,42.9,29.97,ESE,117,7.0,12.0,91,0.00,,---,0.00,0.00,VWS V14.01,2013-04-10 05:40:00,
2013-04-10 01:45:00,45.4,42.6,29.96,SE,128,8.0,12.0,90,0.00,,---,0.00,0.00,VWS V14.01,2013-04-10 05:45:00,
2013-04-10 01:50:00,45.4,42.6,29.96,ESE,119,7.0,11.0,90,0.00,,---,0.00,0.00,VWS V14.01,2013-04-10 05:50:00,
2013-04-10 01:55:00,45.4,42.6,29.96,ESE,114,5.0,11.0,90,0.00,,---,0.00,0.00,VWS V14.01,2013-04-10 05:55:00,
2013-04-10 02:00:00,45.5,42.7,29.97,SE,130,5.0,11.0,90,0.00,,---,0.00,0.00,VWS V14.01,2013-04-10 06:00:00,
2013-04-10 02:05:00,45.4,42.6,29.96,SE,130,2.0,6.0,90,0.00,,---,0.00,0.00,VWS V14.01,2013-04-10 06:05:00,
2013-04-10 02:10:00,45.5,42.7,29.96,SE,130,2.0,6.0,90,0.00,,---,0.00,0.00,VWS V14.01,2013-04-10 06:10:00,
2013-04-10 02:15:00,45.5,42.7,29.96,SE,130,0.0,6.0,90,0.00,,---,0.00,0.00,VWS V14.01,2013-04-10 06:15:00,
2013-04-10 02:20:00,45.5,42.7,29.96,SSE,155,1.0,4.0,90,0.00,,---,0.00,0.00,VWS V14.01,2013-04-10 06:20:00,
2013-04-10 02:25:00,45.5,42.5,29.96,SE,135,7.0,8.0,89,0.00,,---,0.00,0.00,VWS V14.01,2013-04-10 06:25:00,
2013-04-10 02:30:00,45.6,42.5,29.96,SE,136,6.0,8.0,89,0.00,,---,0.00,0.00,VWS V14.01,2013-04-10 06:30:00,
2013-04-10 02:35:00,45.7,42.7,29.95,SE,126,6.0,11.0,89,0.00,,---,0.00,0.00,VWS V14.01,2013-04-10 06:35:00,
2013-04-10 02:40:00,45.8,42.8,29.96,ESE,109,1.0,11.0,89,0.00,,---,0.00,0.00,VWS V14.01,2013-04-10 06:40:00,
2013-04-10 02:45:00,45.8,42.8,29.96,ENE,64,2.0,11.0,89,0.00,,---,0.00,0.00,VWS V14.01,2013-04-10 06:45:00,
2013-04-10 02:51:00,45.7,42.7,29.95,ENE,62,3.0,4.0,89,0.00,,---,0.00,0.00,VWS V14.01,2013-04-10 06:51:00,
2013-04-10 02:56:00,45.8,42.5,29.95,NE,56,4.0,6.0,88,0.00,,---,0.00,0.00,VWS V14.01,2013-04-10 06:56:00,
2013-04-10 03:00:00,45.5,42.7,29.97,SE,126,5.0,11.0,90,0.00,,,0.00,0.00,VWS V14.01,2013-04-10 07:00:00,
2013-04-10 03:01:00,45.9,42.5,29.94,ENE,68,5.0,6.0,88,0.00,,---,0.00,0.00,VWS V14.01,2013-04-10 07:01:00,
2013-04-10 03:06:00,46.0,42.7,29.93,ENE,68,5.0,6.0,88,0.00,,---,0.00,0.00,VWS V14.01,2013-04-10 07:06:00,
2013-04-10 03:11:00,46.0,42.3,29.94,NE,44,5.0,6.0,87,0.00,,---,0.00,0.00,VWS V14.01,2013-04-10 07:11:00,
2013-04-10 03:15:00,45.5,42.7,29.96,SE,130,1.0,6.0,90,0.00,,,0.00,0.00,VWS V14.01,2013-04-10 07:15:00,
2013-04-10 03:16:00,46.0,42.7,29.93,NE,41,5.0,5.0,88,0.00,,---,0.00,0.00,VWS V14.01,2013-04-10 07:16:00,
2013-04-10 03:21:00,45.9,42.5,29.94,NNE,30,4.0,6.0,88,0.00,,---,0.00,0.00,VWS V14.01,2013-04-10 07:21:00,
2013-04-10 03:26:00,45.9,42.5,29.94,NNE,32,6.0,7.0,88,0.00,,---,0.00,0.00,VWS V14.01,2013-04-10 07:26:00,
2013-04-10 03:30:00,45.6,42.5,29.96,SE,128,7.0,8.0,89,0.00,,,0.00,0.00,VWS V14.01,2013-04-10 07:30:00,
2013-04-10 03:31:00,45.8,43.0,29.95,NNE,17,6.0,-999.0,89,-99.99,,,0.00,0,weatherlink.com 1.10,2013-04-10 07:31:00,
2013-04-10 03:36:00,45.8,42.8,29.96,NNE,15,5.0,7.0,89,0.00,,---,0.00,0.00,VWS V14.01,2013-04-10 07:36:00,
2013-04-10 03:41:00,45.9,43.1,29.97,North,360,7.0,9.0,90,0.00,,---,0.00,0.00,VWS V14.01,2013-04-10 07:41:00,
2013-04-10 03:45:00,45.8,42.8,29.96,ENE,64,3.0,11.0,89,0.00,,,0.00,0.00,VWS V14.01,2013-04-10 07:45:00,
2013-04-10 03:46:00,46.2,43.4,29.97,NNE,13,7.0,9.0,90,0.00,,---,0.00,0.00,VWS V14.01,2013-04-10 07:46:00,
2013-04-10 03:51:00,46.5,43.4,29.98,NNW,347,7.0,12.0,89,0.00,,---,0.00,0.00,VWS V14.01,2013-04-10 07:51:00,
2013-04-10 03:57:00,46.7,43.3,29.99,NNW,347,7.0,12.0,88,0.00,,---,0.00,0.00,VWS V14.01,2013-04-10 07:57:00,
2013-04-10 04:00:00,45.9,42.5,29.94,ENE,65,5.0,6.0,88,0.00,,,0.00,0.00,VWS V14.01,2013-04-10 08:00:00,
2013-04-10 04:02:00,46.8,43.4,30.00,North,351,10.0,13.0,88,0.00,,---,0.00,0.00,VWS V14.01,2013-04-10 08:02:00,
2013-04-10 04:07:00,46.9,43.2,30.00,North,349,5.0,14.0,87,0.00,,---,0.00,0.00,VWS V14.01,2013-04-10 08:07:00,
2013-04-10 04:12:00,46.9,43.2,30.00,North,11,4.0,14.0,87,0.00,,---,0.00,0.00,VWS V14.01,2013-04-10 08:12:00,
2013-04-10 04:15:00,46.0,42.7,29.94,NE,41,5.0,6.0,88,0.00,,,0.00,0.00,VWS V14.01,2013-04-10 08:15:00,
2013-04-10 04:17:00,46.8,43.4,30.02,NW,321,5.0,9.0,88,0.00,,---,0.00,0.00,VWS V14.01,2013-04-10 08:17:00,
2013-04-10 04:22:00,46.6,43.2,30.02,NNE,22,9.0,14.0,88,0.00,,---,0.00,0.00,VWS V14.01,2013-04-10 08:22:00,
2013-04-10 04:27:00,46.4,43.3,30.01,NNW,333,6.0,14.0,89,0.00,,---,0.00,0.00,VWS V14.01,2013-04-10 08:27:00,
2013-04-10 04:30:00,45.9,42.8,29.95,North,11,4.0,7.0,89,0.00,,,0.00,0.00,VWS V14.01,2013-04-10 08:30:00,
2013-04-10 04:32:00,46.3,43.2,30.02,NNW,339,5.0,10.0,89,0.00,,---,0.00,0.00,VWS V14.01,2013-04-10 08:32:00,
2013-04-10 04:37:00,46.1,43.6,30.03,NNW,346,5.0,12.0,91,0.02,,---,0.02,0.00,VWS V14.01,2013-04-10 08:37:00,
2013-04-10 04:42:00,45.9,43.4,30.02,NNE,19,5.0,12.0,91,0.06,,---,0.06,0.00,VWS V14.01,2013-04-10 08:42:00,
2013-04-10 04:45:00,46.1,43.3,29.97,NNW,344,8.0,12.0,90,0.00,,,0.00,0.00,VWS V14.01,2013-04-10 08:45:00,
2013-04-10 04:47:00,45.8,43.6,30.00,NNE,12,2.0,5.0,92,0.06,,---,0.06,0.00,VWS V14.01,2013-04-10 08:47:00,
2013-04-10 04:52:00,45.6,43.4,29.99,NE,34,7.0,8.0,92,0.10,,---,0.10,0.00,VWS V14.01,2013-04-10 08:52:00,
2013-04-10 04:57:00,45.4,43.5,29.97,NE,53,4.0,11.0,93,0.12,,---,0.12,0.00,VWS V14.01,2013-04-10 08:57:00,
2013-04-10 05:00:00,46.8,43.4,30.00,NNW,340,6.0,12.0,88,0.00,,,0.00,0.00,VWS V14.01,2013-04-10 09:00:00,
2013-04-10 05:02:00,45.2,43.3,29.96,ENE,76,7.0,12.0,93,0.14,,---,0.14,0.00,VWS V14.01,2013-04-10 09:02:00,
2013-04-10 05:07:00,45.0,43.1,29.95,East,80,13.0,13.0,93,0.14,,---,0.14,0.00,VWS V14.01,2013-04-10 09:07:00,
2013-04-10 05:12:00,44.8,42.9,29.94,ENE,78,11.0,14.0,93,0.14,,---,0.14,0.00,VWS V14.01,2013-04-10 09:12:00,
2013-04-10 05:15:00,46.8,43.4,30.01,NNW,340,7.0,14.0,88,0.00,,,0.00,0.00,VWS V14.01,2013-04-10 09:15:00,
2013-04-10 05:17:00,44.6,43.0,29.92,East,88,14.0,18.0,94,0.14,,---,0.14,0.00,VWS V14.01,2013-04-10 09:17:00,
2013-04-10 05:22:00,44.5,42.9,29.92,NE,53,10.0,19.0,94,0.16,,---,0.16,0.00,VWS V14.01,2013-04-10 09:22:00,
2013-04-10 05:27:00,44.5,42.9,29.91,ENE,78,12.0,19.0,94,0.16,,---,0.16,0.00,VWS V14.01,2013-04-10 09:27:00,
2013-04-10 05:30:00,46.3,43.2,30.01,NNE,13,4.0,14.0,89,0.00,,,0.00,0.00,VWS V14.01,2013-04-10 09:30:00,
2013-04-10 05:32:00,44.5,42.9,29.91,East,83,10.0,14.0,94,0.16,,---,0.16,0.00,VWS V14.01,2013-04-10 09:32:00,
2013-04-10 05:37:00,44.5,42.9,29.90,ENE,65,13.0,17.0,94,0.16,,---,0.16,0.00,VWS V14.01,2013-04-10 09:37:00,
2013-04-10 05:42:00,44.6,43.0,29.89,ENE,74,10.0,17.0,94,0.18,,---,0.18,0.00,VWS V14.01,2013-04-10 09:42:00,
2013-04-10 05:45:00,45.8,43.6,30.01,NE,38,3.0,12.0,92,0.06,,,0.06,0.00,VWS V14.01,2013-04-10 09:45:00,
2013-04-10 05:47:00,44.8,43.2,29.90,ENE,69,12.0,12.0,94,0.12,,---,0.18,0.00,VWS V14.01,2013-04-10 09:47:00,
2013-04-10 05:52:00,44.9,43.0,29.89,NE,56,14.0,18.0,93,0.12,,---,0.18,0.00,VWS V14.01,2013-04-10 09:52:00,
2013-04-10 05:57:00,45.0,43.1,29.88,ENE,72,11.0,18.0,93,0.12,,---,0.18,0.00,VWS V14.01,2013-04-10 09:57:00,
2013-04-10 06:00:00,45.3,43.4,29.97,NE,53,10.0,11.0,93,0.14,,,0.14,0.00,VWS V14.01,2013-04-10 10:00:00,
2013-04-10 06:02:00,45.1,43.2,29.88,East,90,7.0,14.0,93,0.04,,---,0.18,0.00,VWS V14.01,2013-04-10 10:02:00,
2013-04-10 06:07:00,45.4,43.5,29.88,NE,53,8.0,15.0,93,0.04,,---,0.18,0.00,VWS V14.01,2013-04-10 10:07:00,
2013-04-10 06:12:00,45.6,43.4,29.88,East,88,7.0,15.0,92,0.04,,---,0.18,0.00,VWS V14.01,2013-04-10 10:12:00,
2013-04-10 06:15:00,44.7,43.1,29.93,ENE,73,14.0,15.0,94,0.14,,,0.14,0.00,VWS V14.01,2013-04-10 10:15:00,
2013-04-10 06:17:00,45.9,43.4,29.90,ENE,63,8.0,11.0,91,0.04,,---,0.18,5.00,VWS V14.01,2013-04-10 10:17:00,
2013-04-10 06:22:00,46.1,43.6,29.90,ENE,62,10.0,12.0,91,0.04,,---,0.18,7.00,VWS V14.01,2013-04-10 10:22:00,
2013-04-10 06:27:00,46.1,43.3,29.90,ENE,75,7.0,13.0,90,0.04,,---,0.18,11.00,VWS V14.01,2013-04-10 10:27:00,
2013-04-10 06:30:00,44.5,42.9,29.91,ENE,59,12.0,19.0,94,0.16,,,0.16,0.00,VWS V14.01,2013-04-10 10:30:00,
2013-04-10 06:32:00,46.1,43.3,29.90,ENE,59,6.0,10.0,90,0.02,,---,0.18,16.00,VWS V14.01,2013-04-10 10:32:00,
2013-04-10 06:37:00,46.1,43.3,29.91,NE,40,3.0,10.0,90,0.02,,---,0.18,26.00,VWS V14.01,2013-04-10 10:37:00,
2013-04-10 06:42:00,46.1,43.6,29.91,ENE,63,5.0,10.0,91,0.02,,---,0.18,33.00,VWS V14.01,2013-04-10 10:42:00,
2013-04-10 06:45:00,44.7,43.1,29.89,ENE,69,11.0,17.0,94,0.18,,,0.18,0.00,VWS V14.01,2013-04-10 10:45:00,
2013-04-10 06:47:00,46.0,43.5,29.91,NE,56,7.0,7.0,91,0.00,,---,0.18,46.00,VWS V14.01,2013-04-10 10:47:00,
2013-04-10 06:52:00,46.0,43.5,29.92,NE,46,5.0,7.0,91,0.00,,---,0.18,49.00,VWS V14.01,2013-04-10 10:52:00,
2013-04-10 06:57:00,46.1,43.6,29.91,NE,44,7.0,11.0,91,0.00,,---,0.18,63.00,VWS V14.01,2013-04-10 10:57:00,
2013-04-10 07:00:00,45.0,43.1,29.88,ENE,73,8.0,18.0,93,0.12,,,0.18,0.00,VWS V14.01,2013-04-10 11:00:00,
2013-04-10 07:02:00,46.2,43.7,29.93,NNE,28,4.0,6.0,91,0.00,,---,0.18,53.00,VWS V14.01,2013-04-10 11:02:00,
2013-04-10 07:07:00,46.2,43.7,29.93,NE,41,3.0,7.0,91,0.00,,---,0.18,58.00,VWS V14.01,2013-04-10 11:07:00,
2013-04-10 07:12:00,46.3,43.8,29.93,NNE,25,4.0,7.0,91,0.00,,---,0.18,141.00,VWS V14.01,2013-04-10 11:12:00,
2013-04-10 07:15:00,45.8,43.6,29.89,ENE,58,8.0,15.0,92,0.04,,,0.18,0.00,VWS V14.01,2013-04-10 11:15:00,
2013-04-10 07:17:00,46.6,44.1,29.94,NNE,17,2.0,5.0,91,0.00,,---,0.18,114.00,VWS V14.01,2013-04-10 11:17:00,
2013-04-10 07:22:00,46.9,44.4,29.94,North,355,4.0,8.0,91,0.00,,---,0.18,148.00,VWS V14.01,2013-04-10 11:22:00,
2013-04-10 07:27:00,47.1,44.6,29.93,NNE,18,5.0,8.0,91,0.00,,---,0.18,172.00,VWS V14.01,2013-04-10 11:27:00,
2013-04-10 07:30:00,46.1,43.3,29.90,NE,45,7.0,13.0,90,0.04,,,0.18,12.00,VWS V14.01,2013-04-10 11:30:00,
2013-04-10 07:32:00,47.2,44.7,29.93,NNE,12,2.0,7.0,91,0.00,,---,0.18,199.00,VWS V14.01,2013-04-10 11:32:00,
2013-04-10 07:38:00,47.4,44.9,29.94,North,355,2.0,8.0,91,0.00,,---,0.18,206.00,VWS V14.01,2013-04-10 11:38:00,
2013-04-10 07:42:00,47.6,45.1,29.94,NNW,346,3.0,8.0,91,0.00,,---,0.18,229.00,VWS V14.01,2013-04-10 11:42:00,
2013-04-10 07:45:00,46.1,43.6,29.91,NE,48,6.0,10.0,91,0.02,,,0.18,46.00,VWS V14.01,2013-04-10 11:45:00,
2013-04-10 07:48:00,47.6,44.8,29.94,NNE,17,8.0,9.0,90,0.00,,---,0.18,262.00,VWS V14.01,2013-04-10 11:48:00,
2013-04-10 07:53:00,47.7,45.2,29.94,North,5,1.0,9.0,91,0.00,,---,0.18,287.00,VWS V14.01,2013-04-10 11:53:00,
2013-04-10 07:58:00,47.8,45.0,29.94,NNE,16,2.0,9.0,90,0.00,,---,0.18,292.00,VWS V14.01,2013-04-10 11:58:00,
2013-04-10 08:00:00,46.1,43.6,29.92,NNE,17,5.0,11.0,91,0.00,,,0.18,49.00,VWS V14.01,2013-04-10 12:00:00,
2013-04-10 08:03:00,47.7,44.9,29.94,NNE,21,6.0,9.0,90,0.00,,---,0.18,237.00,VWS V14.01,2013-04-10 12:03:00,
2013-04-10 08:08:00,47.6,45.1,29.94,North,5,3.0,9.0,91,0.00,,---,0.18,343.00,VWS V14.01,2013-04-10 12:08:00,
2013-04-10 08:13:00,47.7,44.9,29.94,NE,36,5.0,9.0,90,0.00,,---,0.18,250.00,VWS V14.01,2013-04-10 12:13:00,
2013-04-10 08:15:00,46.5,44.0,29.94,NNE,22,5.0,7.0,91,0.00,,,0.18,97.00,VWS V14.01,2013-04-10 12:15:00,
2013-04-10 08:18:00,47.6,44.8,29.94,North,355,7.0,9.0,90,0.00,,---,0.18,209.00,VWS V14.01,2013-04-10 12:18:00,
2013-04-10 08:23:00,47.3,44.5,29.94,NNE,12,10.0,11.0,90,0.00,,---,0.18,199.00,VWS V14.01,2013-04-10 12:23:00,
2013-04-10 08:28:00,47.2,44.4,29.95,North,5,4.0,11.0,90,0.00,,---,0.18,274.00,VWS V14.01,2013-04-10 12:28:00,
2013-04-10 08:30:00,47.2,44.7,29.93,NE,36,5.0,8.0,91,0.00,,,0.18,188.00,VWS V14.01,2013-04-10 12:30:00,
2013-04-10 08:33:00,47.4,44.9,29.95,NE,40,6.0,7.0,91,0.00,,---,0.18,216.00,VWS V14.01,2013-04-10 12:33:00,
2013-04-10 08:38:00,47.5,44.7,29.96,North,355,5.0,9.0,90,0.00,,---,0.18,264.00,VWS V14.01,2013-04-10 12:38:00,
2013-04-10 08:43:00,47.8,44.7,29.94,North,360,6.0,9.0,89,0.00,,---,0.18,364.00,VWS V14.01,2013-04-10 12:43:00,
2013-04-10 08:45:00,47.6,45.1,29.94,NNE,17,7.0,8.0,91,0.00,,,0.18,237.00,VWS V14.01,2013-04-10 12:45:00,
2013-04-10 08:48:00,48.1,45.0,29.95,NNE,15,7.0,9.0,89,0.00,,---,0.18,374.00,VWS V14.01,2013-04-10 12:48:00,
2013-04-10 08:53:00,48.2,45.1,29.95,NNE,16,7.0,9.0,89,0.00,,---,0.18,316.00,VWS V14.01,2013-04-10 12:53:00,
2013-04-10 08:58:00,48.2,44.8,29.94,North,10,7.0,10.0,88,0.00,,---,0.18,262.00,VWS V14.01,2013-04-10 12:58:00,
2013-04-10 09:00:00,47.8,45.0,29.94,NNE,18,5.0,9.0,90,0.00,,,0.18,258.00,VWS V14.01,2013-04-10 13:00:00,
2013-04-10 09:03:00,48.3,45.2,29.94,NNE,23,3.0,7.0,89,0.00,,---,0.18,294.00,VWS V14.01,2013-04-10 13:03:00,
2013-04-10 09:08:00,48.6,45.5,29.95,NE,52,2.0,7.0,89,0.00,,---,0.18,287.00,VWS V14.01,2013-04-10 13:08:00,
2013-04-10 09:13:00,48.5,45.1,29.95,NNE,29,6.0,8.0,88,0.00,,---,0.18,250.00,VWS V14.01,2013-04-10 13:13:00,
2013-04-10 09:15:00,47.7,44.9,29.94,NNE,26,7.0,9.0,90,0.00,,,0.18,323.00,VWS V14.01,2013-04-10 13:15:00,
2013-04-10 09:18:00,48.5,45.1,29.95,NNE,24,6.0,8.0,88,0.00,,---,0.18,271.00,VWS V14.01,2013-04-10 13:18:00,
2013-04-10 09:23:00,48.6,45.2,29.95,NE,41,5.0,8.0,88,0.00,,---,0.18,285.00,VWS V14.01,2013-04-10 13:23:00,
2013-04-10 09:28:00,48.6,45.2,29.95,NE,38,3.0,8.0,88,0.00,,---,0.18,306.00,VWS V14.01,2013-04-10 13:28:00,
2013-04-10 09:30:00,47.3,44.8,29.95,North,11,6.0,11.0,91,0.00,,,0.18,241.00,VWS V14.01,2013-04-10 13:30:00,
2013-04-10 09:33:00,48.8,45.4,29.95,NNE,29,4.0,6.0,88,0.00,,---,0.18,290.00,VWS V14.01,2013-04-10 13:33:00,
2013-04-10 09:38:00,49.0,45.3,29.95,ENE,60,5.0,7.0,87,0.00,,---,0.18,323.00,VWS V14.01,2013-04-10 13:38:00,
2013-04-10 09:43:00,49.1,45.4,29.94,NNE,15,4.0,9.0,87,0.00,,---,0.18,371.00,VWS V14.01,2013-04-10 13:43:00,
2013-04-10 09:45:00,48.0,45.2,29.94,NNE,13,4.0,9.0,90,0.00,,,0.18,367.00,VWS V14.01,2013-04-10 13:45:00,
2013-04-10 09:48:00,49.3,45.6,29.95,NNE,23,7.0,9.0,87,0.00,,---,0.18,404.00,VWS V14.01,2013-04-10 13:48:00,
2013-04-10 09:53:00,49.5,45.5,29.95,NE,36,1.0,9.0,86,0.00,,---,0.18,364.00,VWS V14.01,2013-04-10 13:53:00,
2013-04-10 09:58:00,50.0,46.0,29.95,North,355,5.0,9.0,86,0.00,,---,0.18,445.00,VWS V14.01,2013-04-10 13:58:00,
2013-04-10 10:00:00,48.2,45.1,29.94,ENE,61,3.0,10.0,89,0.00,,,0.18,304.00,VWS V14.01,2013-04-10 14:00:00,
2013-04-10 10:03:00,50.4,46.1,29.95,North,5,5.0,8.0,85,0.00,,---,0.18,756.00,VWS V14.01,2013-04-10 14:03:00,
2013-04-10 10:08:00,50.8,46.2,29.95,NNE,30,5.0,9.0,84,0.00,,---,0.18,715.00,VWS V14.01,2013-04-10 14:08:00,
2013-04-10 10:13:00,51.3,46.6,29.95,NNE,14,5.0,9.0,84,0.00,,---,0.18,719.00,VWS V14.01,2013-04-10 14:13:00,
2013-04-10 10:15:00,48.5,45.1,29.95,NNE,13,6.0,8.0,88,0.00,,,0.18,250.00,VWS V14.01,2013-04-10 14:15:00,
2013-04-10 10:18:00,51.4,46.4,29.96,NNW,344,6.0,6.0,83,0.00,,---,0.18,729.00,VWS V14.01,2013-04-10 14:18:00,
2013-04-10 10:23:00,51.9,46.6,29.96,NNW,344,2.0,7.0,82,0.00,,---,0.18,740.00,VWS V14.01,2013-04-10 14:23:00,
2013-04-10 10:28:00,52.1,46.8,29.96,North,9,1.0,7.0,82,0.00,,---,0.18,747.00,VWS V14.01,2013-04-10 14:28:00,
2013-04-10 10:30:00,48.6,45.2,29.95,North,351,4.0,8.0,88,0.00,,,0.18,336.00,VWS V14.01,2013-04-10 14:30:00,
2013-04-10 10:33:00,52.5,46.8,29.96,NE,46,4.0,6.0,81,0.00,,---,0.18,754.00,VWS V14.01,2013-04-10 14:33:00,
2013-04-10 10:38:00,53.0,47.7,29.96,NNE,24,4.0,6.0,82,0.00,,---,0.18,772.00,VWS V14.01,2013-04-10 14:38:00,
2013-04-10 10:43:00,53.0,47.0,29.96,NNE,26,3.0,9.0,80,0.00,,---,0.18,765.00,VWS V14.01,2013-04-10 14:43:00,
2013-04-10 10:45:00,49.2,45.5,29.94,NNE,19,5.0,9.0,87,0.00,,,0.18,383.00,VWS V14.01,2013-04-10 14:45:00,
2013-04-10 10:48:00,53.0,47.0,29.95,North,5,3.0,10.0,80,0.00,,---,0.18,777.00,VWS V14.01,2013-04-10 14:48:00,
2013-04-10 10:53:00,53.4,47.7,29.95,NE,47,4.0,10.0,81,0.00,,---,0.18,793.00,VWS V14.01,2013-04-10 14:53:00,
2013-04-10 10:58:00,53.3,47.3,29.95,ENE,57,2.0,10.0,80,0.00,,---,0.18,803.00,VWS V14.01,2013-04-10 14:58:00,
2013-04-10 11:00:00,50.2,45.9,29.95,NNE,24,6.0,9.0,85,0.00,,,0.18,508.00,VWS V14.01,2013-04-10 15:00:00,
2013-04-10 11:03:00,53.3,47.3,29.95,NNE,30,5.0,9.0,80,0.00,,---,0.18,810.00,VWS V14.01,2013-04-10 15:03:00,
2013-04-10 11:08:00,53.7,47.3,29.95,NE,39,5.0,9.0,79,0.00,,---,0.18,817.00,VWS V14.01,2013-04-10 15:08:00,
2013-04-10 11:13:00,53.6,47.3,29.95,ENE,61,7.0,10.0,79,0.00,,---,0.18,823.00,VWS V14.01,2013-04-10 15:13:00,
2013-04-10 11:15:00,51.3,46.3,29.95,NNE,17,8.0,9.0,83,0.00,,,0.18,721.00,VWS V14.01,2013-04-10 15:15:00,
2013-04-10 11:18:00,53.6,47.3,29.95,North,355,3.0,8.0,79,0.00,,---,0.18,830.00,VWS V14.01,2013-04-10 15:18:00,
2013-04-10 11:23:00,53.7,47.3,29.96,NNW,331,6.0,9.0,79,0.00,,---,0.18,838.00,VWS V14.01,2013-04-10 15:23:00,
2013-04-10 11:28:00,54.2,48.2,29.95,NE,53,5.0,9.0,80,0.00,,---,0.18,819.00,VWS V14.01,2013-04-10 15:28:00,
2013-04-10 11:30:00,52.3,47.0,29.96,NE,42,2.0,7.0,82,0.00,,,0.18,731.00,VWS V14.01,2013-04-10 15:30:00,
2013-04-10 11:33:00,54.6,47.5,29.95,East,81,4.0,8.0,77,0.00,,---,0.18,396.00,VWS V14.01,2013-04-10 15:33:00,
2013-04-10 11:38:00,54.6,47.5,29.95,NNE,33,3.0,8.0,77,0.00,,---,0.18,819.00,VWS V14.01,2013-04-10 15:38:00,
2013-04-10 11:43:00,54.7,47.3,29.96,NNE,21,4.0,8.0,76,0.00,,---,0.18,881.00,VWS V14.01,2013-04-10 15:43:00,
2013-04-10 11:45:00,53.0,47.3,29.95,NNE,28,7.0,9.0,81,0.00,,,0.18,763.00,VWS V14.01,2013-04-10 15:45:00,
2013-04-10 11:48:00,54.7,47.6,29.96,North,355,3.0,6.0,77,0.00,,---,0.18,729.00,VWS V14.01,2013-04-10 15:48:00,
2013-04-10 11:53:00,54.6,47.5,29.97,NNE,32,4.0,9.0,77,0.00,,---,0.18,877.00,VWS V14.01,2013-04-10 15:53:00,
2013-04-10 11:58:00,55.1,48.0,29.97,NE,46,3.0,9.0,77,0.00,,---,0.18,874.00,VWS V14.01,2013-04-10 15:58:00,
2013-04-10 12:00:00,53.4,47.1,29.95,NE,56,6.0,10.0,79,0.00,,,0.18,805.00,VWS V14.01,2013-04-10 16:00:00,
2013-04-10 12:03:00,55.3,47.5,29.97,NE,35,7.0,8.0,75,0.00,,---,0.18,875.00,VWS V14.01,2013-04-10 16:03:00,
2013-04-10 12:08:00,54.9,47.1,29.97,NNE,15,7.0,12.0,75,0.00,,---,0.18,874.00,VWS V14.01,2013-04-10 16:08:00,
2013-04-10 12:13:00,55.1,47.3,29.97,NE,36,11.0,12.0,75,0.00,,---,0.18,881.00,VWS V14.01,2013-04-10 16:13:00,
2013-04-10 12:15:00,53.5,47.2,29.95,NNE,23,5.0,10.0,79,0.00,,,0.18,824.00,VWS V14.01,2013-04-10 16:15:00,
2013-04-10 12:18:00,55.5,48.1,29.97,NNE,24,5.0,9.0,76,0.00,,---,0.18,884.00,VWS V14.01,2013-04-10 16:18:00,
2013-04-10 12:23:00,56.4,47.9,29.96,NNE,19,9.0,11.0,73,0.00,,---,0.18,888.00,VWS V14.01,2013-04-10 16:23:00,
2013-04-10 12:28:00,56.9,47.6,29.96,NE,43,12.0,14.0,71,0.00,,---,0.18,889.00,VWS V14.01,2013-04-10 16:28:00,
2013-04-10 12:30:00,54.4,47.7,29.95,NNE,21,4.0,9.0,78,0.00,,,0.18,682.00,VWS V14.01,2013-04-10 16:30:00,
2013-04-10 12:33:00,56.7,47.4,29.96,NNE,22,10.0,14.0,71,0.00,,---,0.18,898.00,VWS V14.01,2013-04-10 16:33:00,
2013-04-10 12:38:00,56.7,47.0,29.96,NE,51,6.0,14.0,70,0.00,,---,0.18,881.00,VWS V14.01,2013-04-10 16:38:00,
2013-04-10 12:43:00,57.4,47.3,29.95,NE,49,7.0,14.0,69,0.00,,---,0.18,844.00,VWS V14.01,2013-04-10 16:43:00,
2013-04-10 12:45:00,54.6,47.2,29.96,NNE,23,6.0,8.0,76,0.00,,,0.18,882.00,VWS V14.01,2013-04-10 16:45:00,
2013-04-10 12:48:00,57.5,46.6,29.95,NE,42,6.0,12.0,67,0.00,,---,0.18,891.00,VWS V14.01,2013-04-10 16:48:00,
2013-04-10 12:53:00,56.4,46.8,29.95,ENE,63,10.0,17.0,70,0.00,,---,0.18,874.00,VWS V14.01,2013-04-10 16:53:00,
2013-04-10 12:58:00,55.1,46.6,29.96,NE,56,15.0,17.0,73,0.00,,---,0.18,875.00,VWS V14.01,2013-04-10 16:58:00,
2013-04-10 13:00:00,55.4,48.0,29.97,NNE,31,7.0,9.0,76,0.00,,,0.18,875.00,VWS V14.01,2013-04-10 17:00:00,
2013-04-10 13:03:00,55.0,46.9,29.96,NE,37,14.0,15.0,74,0.00,,---,0.18,840.00,VWS V14.01,2013-04-10 17:03:00,
2013-04-10 13:08:00,55.2,46.7,29.96,NE,50,8.0,15.0,73,0.00,,---,0.18,867.00,VWS V14.01,2013-04-10 17:08:00,
2013-04-10 13:13:00,55.2,46.3,29.96,NE,45,11.0,16.0,72,0.00,,---,0.18,868.00,VWS V14.01,2013-04-10 17:13:00,
2013-04-10 13:15:00,55.1,47.3,29.97,North,9,8.0,12.0,75,0.00,,,0.18,881.00,VWS V14.01,2013-04-10 17:15:00,
2013-04-10 13:19:00,54.8,46.3,29.95,NE,48,8.0,18.0,73,0.00,,---,0.18,863.00,VWS V14.01,2013-04-10 17:19:00,
2013-04-10 13:24:00,55.0,46.2,29.96,ENE,57,12.0,19.0,72,0.00,,---,0.18,856.00,VWS V14.01,2013-04-10 17:24:00,
2013-04-10 13:29:00,54.9,46.8,29.96,NE,48,7.0,19.0,74,0.00,,---,0.18,856.00,VWS V14.01,2013-04-10 17:29:00,
2013-04-10 13:30:00,56.8,47.5,29.96,NE,44,14.0,14.0,71,0.00,,,0.18,891.00,VWS V14.01,2013-04-10 17:30:00,
2013-04-10 13:34:00,55.2,46.3,29.97,NE,46,7.0,15.0,72,0.00,,---,0.18,854.00,VWS V14.01,2013-04-10 17:34:00,
2013-04-10 13:39:00,54.7,46.6,29.97,NE,40,13.0,17.0,74,0.00,,---,0.18,851.00,VWS V14.01,2013-04-10 17:39:00,
2013-04-10 13:44:00,54.5,46.4,29.96,ENE,60,14.0,17.0,74,0.00,,---,0.18,846.00,VWS V14.01,2013-04-10 17:44:00,
2013-04-10 13:45:00,57.6,47.1,29.95,NE,48,7.0,14.0,68,0.00,,,0.18,550.00,VWS V14.01,2013-04-10 17:45:00,
2013-04-10 13:49:00,54.3,46.2,29.97,NE,38,9.0,19.0,74,0.00,,---,0.18,837.00,VWS V14.01,2013-04-10 17:49:00,
2013-04-10 13:54:00,53.8,46.1,29.97,NNE,33,9.0,19.0,75,0.00,,---,0.18,831.00,VWS V14.01,2013-04-10 17:54:00,
2013-04-10 13:59:00,53.9,46.2,29.97,NE,44,14.0,19.0,75,0.00,,---,0.18,826.00,VWS V14.01,2013-04-10 17:59:00,
2013-04-10 14:00:00,54.8,46.7,29.96,ENE,57,12.0,17.0,74,0.00,,,0.18,870.00,VWS V14.01,2013-04-10 18:00:00,
2013-04-10 14:04:00,53.2,45.5,29.96,East,80,10.0,15.0,75,0.00,,---,0.18,821.00,VWS V14.01,2013-04-10 18:04:00,
2013-04-10 14:09:00,51.8,45.5,29.96,NE,36,6.0,15.0,79,0.00,,---,0.18,814.00,VWS V14.01,2013-04-10 18:09:00,
2013-04-10 14:14:00,51.9,45.6,29.96,ENE,67,8.0,15.0,79,0.00,,---,0.18,798.00,VWS V14.01,2013-04-10 18:14:00,
2013-04-10 14:15:00,55.0,46.5,29.96,NE,34,10.0,20.0,73,0.00,,,0.18,867.00,VWS V14.01,2013-04-10 18:15:00,
2013-04-10 14:19:00,52.4,46.1,29.96,NE,36,7.0,13.0,79,0.00,,---,0.18,793.00,VWS V14.01,2013-04-10 18:19:00,
2013-04-10 14:24:00,53.0,45.7,29.96,NE,55,12.0,15.0,76,0.00,,---,0.18,772.00,VWS V14.01,2013-04-10 18:24:00,
2013-04-10 14:29:00,53.0,46.0,29.96,ENE,57,5.0,15.0,77,0.00,,---,0.18,779.00,VWS V14.01,2013-04-10 18:29:00,
2013-04-10 14:30:00,55.1,47.0,29.97,NE,54,7.0,19.0,74,0.00,,,0.18,856.00,VWS V14.01,2013-04-10 18:30:00,
2013-04-10 14:34:00,53.2,45.8,29.95,East,82,5.0,13.0,76,0.00,,---,0.18,754.00,VWS V14.01,2013-04-10 18:34:00,
2013-04-10 14:39:00,53.0,45.7,29.96,NE,49,11.0,13.0,76,0.00,,---,0.18,752.00,VWS V14.01,2013-04-10 18:39:00,
2013-04-10 14:44:00,53.6,46.2,29.96,NE,54,8.0,13.0,76,0.00,,---,0.18,738.00,VWS V14.01,2013-04-10 18:44:00,
2013-04-10 14:45:00,54.3,46.2,29.96,NE,54,8.0,18.0,74,0.00,,,0.18,842.00,VWS V14.01,2013-04-10 18:45:00,
2013-04-10 14:49:00,54.6,46.5,29.96,NE,47,6.0,12.0,74,0.00,,---,0.18,721.00,VWS V14.01,2013-04-10 18:49:00,
2013-04-10 14:54:00,55.0,46.2,29.95,NNE,24,7.0,12.0,72,0.00,,---,0.18,700.00,VWS V14.01,2013-04-10 18:54:00,
2013-04-10 14:59:00,55.0,46.5,29.95,NNE,28,8.0,12.0,73,0.00,,---,0.18,686.00,VWS V14.01,2013-04-10 18:59:00,
2013-04-10 15:00:00,53.9,46.2,29.96,ENE,59,10.0,19.0,75,0.00,,,0.18,823.00,VWS V14.01,2013-04-10 19:00:00,
2013-04-10 15:04:00,55.0,46.5,29.95,NNE,17,4.0,11.0,73,0.00,,---,0.18,677.00,VWS V14.01,2013-04-10 19:04:00,
2013-04-10 15:09:00,55.1,46.2,29.94,East,79,5.0,11.0,72,0.00,,---,0.18,680.00,VWS V14.01,2013-04-10 19:09:00,
2013-04-10 15:14:00,54.5,46.0,29.95,NNE,21,5.0,14.0,73,0.00,,---,0.18,666.00,VWS V14.01,2013-04-10 19:14:00,
2013-04-10 15:15:00,52.0,45.7,29.96,NE,40,7.0,15.0,79,0.00,,,0.18,795.00,VWS V14.01,2013-04-10 19:15:00,
2013-04-10 15:19:00,55.0,46.5,29.94,ENE,65,10.0,10.0,73,0.00,,---,0.18,610.00,VWS V14.01,2013-04-10 19:19:00,
2013-04-10 15:24:00,55.5,46.3,29.94,ENE,57,8.0,12.0,71,0.00,,---,0.18,636.00,VWS V14.01,2013-04-10 19:24:00,
2013-04-10 15:29:00,54.6,45.8,29.94,ENE,58,5.0,12.0,72,0.00,,---,0.18,622.00,VWS V14.01,2013-04-10 19:29:00,
2013-04-10 15:30:00,53.2,45.8,29.96,NE,52,10.0,15.0,76,0.00,,,0.18,773.00,VWS V14.01,2013-04-10 19:30:00,
2013-04-10 15:34:00,54.7,45.9,29.93,NE,51,8.0,12.0,72,0.00,,---,0.18,643.00,VWS V14.01,2013-04-10 19:34:00,
2013-04-10 15:39:00,54.6,46.1,29.92,ENE,58,8.0,12.0,73,0.00,,---,0.18,733.00,VWS V14.01,2013-04-10 19:39:00,
2013-04-10 15:44:00,54.9,46.1,29.91,NE,55,12.0,12.0,72,0.00,,---,0.18,744.00,VWS V14.01,2013-04-10 19:44:00,
2013-04-10 15:45:00,54.1,46.4,29.96,NE,42,9.0,13.0,75,0.00,,,0.18,737.00,VWS V14.01,2013-04-10 19:45:00,
2013-04-10 15:49:00,54.8,46.3,29.91,NNE,30,7.0,12.0,73,0.00,,---,0.18,643.00,VWS V14.01,2013-04-10 19:49:00,
2013-04-10 15:54:00,55.2,46.0,29.91,North,5,5.0,12.0,71,0.00,,---,0.18,624.00,VWS V14.01,2013-04-10 19:54:00,
2013-04-10 15:59:00,55.7,46.5,29.91,NNE,17,5.0,12.0,71,0.00,,---,0.18,355.00,VWS V14.01,2013-04-10 19:59:00,
2013-04-10 16:00:00,55.1,46.2,29.96,ENE,59,5.0,12.0,72,0.00,,,0.18,700.00,VWS V14.01,2013-04-10 20:00:00,
2013-04-10 16:04:00,56.2,46.6,29.92,ENE,63,6.0,10.0,70,0.00,,---,0.18,582.00,VWS V14.01,2013-04-10 20:04:00,
2013-04-10 16:09:00,56.1,46.1,29.92,ESE,117,8.0,12.0,69,0.00,,---,0.18,213.00,VWS V14.01,2013-04-10 20:09:00,
2013-04-10 16:14:00,54.8,46.7,29.92,ESE,118,8.0,12.0,74,0.00,,---,0.18,241.00,VWS V14.01,2013-04-10 20:14:00,
2013-04-10 16:15:00,54.6,46.1,29.95,NE,43,10.0,14.0,73,0.00,,,0.18,663.00,VWS V14.01,2013-04-10 20:15:00,
2013-04-10 16:19:00,53.1,46.1,29.92,ESE,117,11.0,14.0,77,0.00,,---,0.18,285.00,VWS V14.01,2013-04-10 20:19:00,
2013-04-10 16:24:00,52.2,45.9,29.91,ESE,107,8.0,14.0,79,0.00,,---,0.18,420.00,VWS V14.01,2013-04-10 20:24:00,
2013-04-10 16:29:00,51.4,45.5,29.91,ESE,108,12.0,15.0,80,0.00,,---,0.18,503.00,VWS V14.01,2013-04-10 20:29:00,
2013-04-10 16:30:00,54.6,46.1,29.93,NE,51,7.0,12.0,73,0.00,,,0.18,619.00,VWS V14.01,2013-04-10 20:30:00,
2013-04-10 16:34:00,50.9,45.6,29.91,ESE,119,13.0,19.0,82,0.00,,---,0.18,445.00,VWS V14.01,2013-04-10 20:34:00,
2013-04-10 16:39:00,50.6,45.3,29.90,East,98,15.0,19.0,82,0.00,,---,0.18,374.00,VWS V14.01,2013-04-10 20:39:00,
2013-04-10 16:44:00,50.6,45.6,29.90,ESE,106,16.0,19.0,83,0.00,,---,0.18,383.00,VWS V14.01,2013-04-10 20:44:00,
2013-04-10 16:45:00,55.0,46.2,29.91,NE,56,6.0,13.0,72,0.00,,,0.18,719.00,VWS V14.01,2013-04-10 20:45:00,
2013-04-10 16:50:00,50.5,45.5,29.91,ESE,113,14.0,19.0,83,0.00,,---,0.18,325.00,VWS V14.01,2013-04-10 20:50:00,
2013-04-10 16:55:00,50.3,45.3,29.92,ESE,103,14.0,19.0,83,0.00,,---,0.18,295.00,VWS V14.01,2013-04-10 20:55:00,
2013-04-10 17:00:00,49.7,45.1,29.91,ESE,119,19.0,20.0,84,0.00,,---,0.18,283.00,VWS V14.01,2013-04-10 21:00:00,
2013-04-10 17:05:00,49.0,44.7,29.92,ESE,114,14.0,18.0,85,0.00,,---,0.18,160.00,VWS V14.01,2013-04-10 21:05:00,
2013-04-10 17:10:00,48.5,44.5,29.91,ESE,123,12.0,18.0,86,0.00,,---,0.18,128.00,VWS V14.01,2013-04-10 21:10:00,
2013-04-10 17:15:00,48.4,44.7,29.92,ESE,113,14.0,18.0,87,0.00,,---,0.18,237.00,VWS V14.01,2013-04-10 21:15:00,
2013-04-10 17:20:00,48.9,44.9,29.92,ESE,111,12.0,15.0,86,0.00,,---,0.18,227.00,VWS V14.01,2013-04-10 21:20:00,
2013-04-10 17:25:00,48.9,44.9,29.92,ESE,109,11.0,15.0,86,0.00,,---,0.18,188.00,VWS V14.01,2013-04-10 21:25:00,
2013-04-10 17:30:00,48.8,44.8,29.92,ESE,109,8.0,15.0,86,0.00,,---,0.18,265.00,VWS V14.01,2013-04-10 21:30:00,
2013-04-10 17:35:00,48.9,44.9,29.92,ESE,109,12.0,15.0,86,0.00,,---,0.18,220.00,VWS V14.01,2013-04-10 21:35:00,
2013-04-10 17:40:00,48.6,44.6,29.93,East,96,12.0,15.0,86,0.00,,---,0.18,102.00,VWS V14.01,2013-04-10 21:40:00,
2013-04-10 17:45:00,47.4,43.7,29.92,East,87,12.0,15.0,87,0.00,,---,0.18,72.00,VWS V14.01,2013-04-10 21:45:00,
2013-04-10 17:50:00,46.8,43.4,29.93,East,92,11.0,15.0,88,0.00,,---,0.18,88.00,VWS V14.01,2013-04-10 21:50:00,
2013-04-10 17:55:00,46.7,43.6,29.93,East,88,14.0,16.0,89,0.00,,---,0.18,91.00,VWS V14.01,2013-04-10 21:55:00,
2013-04-10 18:00:00,46.9,43.5,29.93,East,88,10.0,16.0,88,0.00,,---,0.18,142.00,VWS V14.01,2013-04-10 22:00:00,
2013-04-10 18:05:00,46.9,43.2,29.93,East,83,12.0,16.0,87,0.00,,---,0.18,83.00,VWS V14.01,2013-04-10 22:05:00,
2013-04-10 18:10:00,46.6,43.2,29.94,East,100,7.0,16.0,88,0.00,,---,0.18,62.00,VWS V14.01,2013-04-10 22:10:00,
2013-04-10 18:15:00,46.4,43.0,29.94,East,86,12.0,16.0,88,0.00,,---,0.18,51.00,VWS V14.01,2013-04-10 22:15:00,
2013-04-10 18:20:00,46.1,43.0,29.94,East,88,8.0,14.0,89,0.00,,---,0.18,53.00,VWS V14.01,2013-04-10 22:20:00,
2013-04-10 18:25:00,45.9,42.8,29.94,East,82,11.0,14.0,89,0.00,,---,0.18,77.00,VWS V14.01,2013-04-10 22:25:00,
2013-04-10 18:30:00,45.7,42.9,29.93,ENE,69,11.0,16.0,90,0.00,,---,0.18,63.00,VWS V14.01,2013-04-10 22:30:00,
2013-04-10 18:35:00,45.5,42.7,29.93,ENE,66,12.0,15.0,90,0.00,,---,0.18,44.00,VWS V14.01,2013-04-10 22:35:00,
2013-04-10 18:40:00,45.4,42.6,29.94,East,83,12.0,15.0,90,0.00,,---,0.18,42.00,VWS V14.01,2013-04-10 22:40:00,
2013-04-10 18:45:00,45.4,42.9,29.93,East,90,14.0,15.0,91,0.00,,---,0.18,33.00,VWS V14.01,2013-04-10 22:45:00,
2013-04-10 18:50:00,45.6,43.1,29.93,East,101,12.0,15.0,91,0.00,,---,0.18,21.00,VWS V14.01,2013-04-10 22:50:00,
2013-04-10 18:55:00,45.7,43.2,29.93,East,95,12.0,18.0,91,0.00,,---,0.18,11.00,VWS V14.01,2013-04-10 22:55:00,
2013-04-10 19:00:00,45.7,42.9,29.93,ESE,107,15.0,18.0,90,0.00,,---,0.18,11.00,VWS V14.01,2013-04-10 23:00:00,
2013-04-10 19:05:00,45.7,42.9,29.92,ESE,105,14.0,19.0,90,0.00,,---,0.18,11.00,VWS V14.01,2013-04-10 23:05:00,
2013-04-10 19:10:00,45.6,43.1,29.91,East,101,15.0,21.0,91,0.00,,---,0.18,7.00,VWS V14.01,2013-04-10 23:10:00,
2013-04-10 19:15:00,45.6,42.8,29.90,East,99,15.0,21.0,90,0.00,,---,0.18,0.00,VWS V14.01,2013-04-10 23:15:00,
2013-04-10 19:20:00,45.7,43.2,29.92,East,88,10.0,18.0,91,0.00,,---,0.18,0.00,VWS V14.01,2013-04-10 23:20:00,
2013-04-10 19:25:00,45.9,43.4,29.92,ESE,107,14.0,18.0,91,0.00,,---,0.18,0.00,VWS V14.01,2013-04-10 23:25:00,
2013-04-10 19:30:00,46.0,43.2,29.91,ESE,106,12.0,18.0,90,0.00,,---,0.18,0.00,VWS V14.01,2013-04-10 23:30:00,
2013-04-10 19:35:00,46.2,43.4,29.91,East,90,11.0,14.0,90,0.00,,---,0.18,0.00,VWS V14.01,2013-04-10 23:35:00,
2013-04-10 19:40:00,46.0,43.2,29.91,East,101,9.0,14.0,90,0.00,,---,0.18,0.00,VWS V14.01,2013-04-10 23:40:00,
2013-04-10 19:45:00,45.9,43.4,29.91,ESE,110,11.0,14.0,91,0.00,,---,0.18,0.00,VWS V14.01,2013-04-10 23:45:00,
2013-04-10 19:50:00,46.0,43.5,29.91,ESE,123,11.0,12.0,91,0.00,,---,0.18,0.00,VWS V14.01,2013-04-10 23:50:00,
2013-04-10 19:55:00,46.2,44.0,29.91,SE,143,6.0,12.0,92,0.00,,---,0.18,0.00,VWS V14.01,2013-04-10 23:55:00,
2013-04-10 20:00:00,46.3,43.8,29.90,ESE,122,7.0,12.0,91,0.00,,---,0.18,0.00,VWS V14.01,2013-04-11 00:00:00,
2013-04-10 20:05:00,46.3,43.8,29.90,ESE,119,11.0,12.0,91,0.00,,---,0.18,0.00,VWS V14.01,2013-04-11 00:05:00,
2013-04-10 20:10:00,46.5,44.0,29.90,SE,134,8.0,12.0,91,0.00,,---,0.18,0.00,VWS V14.01,2013-04-11 00:10:00,
2013-04-10 20:15:00,46.5,44.0,29.91,SSE,154,8.0,12.0,91,0.00,,---,0.18,0.00,VWS V14.01,2013-04-11 00:15:00,
2013-04-10 20:20:00,46.2,43.4,29.92,SSE,154,7.0,10.0,90,0.00,,---,0.18,0.00,VWS V14.01,2013-04-11 00:20:00,
2013-04-10 20:25:00,46.1,43.3,29.91,SE,138,7.0,10.0,90,0.00,,---,0.18,0.00,VWS V14.01,2013-04-11 00:25:00,
2013-04-10 20:30:00,45.9,43.1,29.90,SE,135,8.0,11.0,90,0.00,,---,0.18,0.00,VWS V14.01,2013-04-11 00:30:00,
2013-04-10 20:35:00,45.7,42.9,29.91,SE,139,6.0,10.0,90,0.00,,---,0.18,0.00,VWS V14.01,2013-04-11 00:35:00,
2013-04-10 20:40:00,45.6,42.8,29.91,SE,130,8.0,10.0,90,0.00,,---,0.18,0.00,VWS V14.01,2013-04-11 00:40:00,
2013-04-10 20:45:00,45.6,42.8,29.90,ESE,113,8.0,10.0,90,0.00,,---,0.18,0.00,VWS V14.01,2013-04-11 00:45:00,
2013-04-10 20:50:00,45.6,42.8,29.90,ESE,113,9.0,9.0,90,0.00,,---,0.18,0.00,VWS V14.01,2013-04-11 00:50:00,
2013-04-10 20:55:00,45.5,42.7,29.90,ESE,111,5.0,11.0,90,0.00,,---,0.18,0.00,VWS V14.01,2013-04-11 00:55:00,
2013-04-10 21:00:00,45.5,42.7,29.91,ESE,123,5.0,11.0,90,0.00,,---,0.18,0.00,VWS V14.01,2013-04-11 01:00:00,
2013-04-10 21:05:00,45.6,42.8,29.93,SE,130,0.0,4.0,90,0.00,,---,0.18,0.00,VWS V14.01,2013-04-11 01:05:00,
2013-04-10 21:10:00,45.6,42.8,29.97,West,272,8.0,10.0,90,0.00,,---,0.18,0.00,VWS V14.01,2013-04-11 01:10:00,
2013-04-10 21:15:00,46.1,43.9,30.05,WNW,282,23.0,43.0,92,0.00,,---,0.18,0.00,VWS V14.01,2013-04-11 01:15:00,
2013-04-10 21:20:00,46.0,43.8,30.00,WSW,257,7.0,20.0,92,0.04,,---,0.22,0.00,VWS V14.01,2013-04-11 01:20:00,
2013-04-10 21:25:00,45.9,43.7,29.97,SSE,161,0.0,20.0,92,0.12,,---,0.30,0.00,VWS V14.01,2013-04-11 01:25:00,
2013-04-10 21:30:00,45.8,43.6,29.98,SSW,199,1.0,20.0,92,0.14,,---,0.32,0.00,VWS V14.01,2013-04-11 01:30:00,
2013-04-10 21:35:00,45.7,43.5,29.95,SE,132,4.0,4.0,92,0.14,,---,0.32,0.00,VWS V14.01,2013-04-11 01:35:00,
2013-04-10 21:40:00,45.6,43.7,29.93,ESE,120,8.0,8.0,93,0.16,,---,0.34,0.00,VWS V14.01,2013-04-11 01:40:00,
2013-04-10 21:45:00,45.6,43.7,29.92,SE,138,11.0,12.0,93,0.18,,---,0.36,0.00,VWS V14.01,2013-04-11 01:45:00,
2013-04-10 21:50:00,45.5,43.6,29.92,SSE,147,9.0,12.0,93,0.20,,---,0.38,0.00,VWS V14.01,2013-04-11 01:50:00,
2013-04-10 21:55:00,45.4,43.5,29.92,SE,131,6.0,12.0,93,0.20,,---,0.38,0.00,VWS V14.01,2013-04-11 01:55:00,
2013-04-10 22:00:00,45.2,43.3,29.92,ESE,113,5.0,12.0,93,0.20,,---,0.38,0.00,VWS V14.01,2013-04-11 02:00:00,
2013-04-10 22:05:00,45.1,43.2,29.91,SE,131,8.0,11.0,93,0.20,,---,0.38,0.00,VWS V14.01,2013-04-11 02:05:00,
2013-04-10 22:10:00,44.9,43.3,29.90,ESE,114,8.0,11.0,94,0.20,,---,0.38,0.00,VWS V14.01,2013-04-11 02:10:00,
2013-04-10 22:15:00,44.8,43.2,29.89,ESE,103,6.0,11.0,94,0.20,,---,0.38,0.00,VWS V14.01,2013-04-11 02:15:00,
2013-04-10 22:20:00,44.6,43.0,29.89,East,95,4.0,8.0,94,0.20,,---,0.38,0.00,VWS V14.01,2013-04-11 02:20:00,
2013-04-10 22:25:00,44.6,43.0,29.89,East,94,5.0,8.0,94,0.20,,---,0.38,0.00,VWS V14.01,2013-04-11 02:25:00,
2013-04-10 22:30:00,44.6,43.0,29.89,East,91,5.0,8.0,94,0.20,,---,0.38,0.00,VWS V14.01,2013-04-11 02:30:00,
2013-04-10 22:35:00,44.6,43.0,29.88,ENE,72,4.0,7.0,94,0.06,,---,0.38,0.00,VWS V14.01,2013-04-11 02:35:00,
2013-04-10 22:40:00,44.5,43.2,29.88,East,84,6.0,7.0,95,0.06,,---,0.38,0.00,VWS V14.01,2013-04-11 02:40:00,
2013-04-10 22:45:00,44.5,43.2,29.88,East,96,7.0,9.0,95,0.06,,---,0.38,0.00,VWS V14.01,2013-04-11 02:45:00,
2013-04-10 22:50:00,44.6,43.3,29.88,East,89,4.0,6.0,95,0.02,,---,0.38,0.00,VWS V14.01,2013-04-11 02:50:00,
2013-04-10 22:55:00,44.6,43.3,29.88,East,92,2.0,6.0,95,0.02,,---,0.38,0.00,VWS V14.01,2013-04-11 02:55:00,
2013-04-10 23:00:00,44.6,43.3,29.88,East,92,4.0,6.0,95,0.02,,---,0.38,0.00,VWS V14.01,2013-04-11 03:00:00,
2013-04-10 23:05:00,44.6,43.3,29.88,East,84,3.0,6.0,95,0.00,,---,0.38,0.00,VWS V14.01,2013-04-11 03:05:00,
2013-04-10 23:10:00,44.6,43.3,29.90,East,89,0.0,6.0,95,0.00,,---,0.38,0.00,VWS V14.01,2013-04-11 03:10:00,
2013-04-10 23:15:00,44.7,43.4,29.91,NW,308,3.0,6.0,95,0.00,,---,0.38,0.00,VWS V14.01,2013-04-11 03:15:00,
2013-04-10 23:20:00,44.8,43.5,29.91,NW,321,2.0,4.0,95,0.00,,---,0.38,0.00,VWS V14.01,2013-04-11 03:20:00,
2013-04-10 23:26:00,44.9,43.6,29.91,NNW,340,2.0,4.0,95,0.00,,---,0.38,0.00,VWS V14.01,2013-04-11 03:26:00,
2013-04-10 23:30:00,44.6,43.0,29.89,ENE,74,4.0,8.0,94,0.20,,,0.38,0.00,VWS V14.01,2013-04-11 03:30:00,
2013-04-10 23:31:00,44.9,43.6,29.90,North,10,2.0,2.0,95,0.00,,---,0.38,0.00,VWS V14.01,2013-04-11 03:31:00,
2013-04-10 23:36:00,44.9,43.6,29.91,NNW,336,0.0,3.0,95,0.00,,---,0.38,0.00,VWS V14.01,2013-04-11 03:36:00,
2013-04-10 23:41:00,45.0,43.7,29.91,NNW,338,0.0,3.0,95,0.00,,---,0.38,0.00,VWS V14.01,2013-04-11 03:41:00,
2013-04-10 23:45:00,44.5,43.2,29.88,East,92,6.0,9.0,95,0.06,,,0.38,0.00,VWS V14.01,2013-04-11 03:45:00,
2013-04-10 23:46:00,45.0,43.7,29.90,NNW,339,0.0,1.0,95,0.00,,---,0.38,0.00,VWS V14.01,2013-04-11 03:46:00,
2013-04-10 23:52:00,45.0,43.7,29.92,NW,325,2.0,2.0,95,0.00,,---,0.38,0.00,VWS V14.01,2013-04-11 03:52:00,
2013-04-10 23:57:00,45.1,43.8,29.91,NW,325,0.0,2.0,95,0.00,,---,0.38,0.00,VWS V14.01,2013-04-11 03:57:00,